createdAt,value
2019-05-01T00:00:21.318Z,13.69
2019-05-01T00:03:02.624Z,13.65
2019-05-01T00:05:34.969Z,13.60
2019-05-01T00:08:04.062Z,13.57
2019-05-01T00:10:33.303Z,13.53
2019-05-01T00:13:02.477Z,13.50
2019-05-01T00:15:33.948Z,13.46
2019-05-01T00:18:03.043Z,13.43
2019-05-01T00:20:32.123Z,13.42
2019-05-01T00:23:01.139Z,13.39
2019-05-01T00:25:30.227Z,13.32
2019-05-01T00:27:59.255Z,13.28
2019-05-01T00:30:30.212Z,13.24
2019-05-01T00:32:59.096Z,13.22
2019-05-01T00:35:28.203Z,13.21
2019-05-01T00:37:57.248Z,13.19
2019-05-01T00:40:26.325Z,13.18
2019-05-01T00:42:55.413Z,13.15
2019-05-01T00:45:24.475Z,13.11
2019-05-01T00:47:53.569Z,13.09
2019-05-01T00:50:22.628Z,13.05
2019-05-01T00:52:51.793Z,13.02
2019-05-01T00:55:39.232Z,13.00
2019-05-01T00:58:15.839Z,12.96
2019-05-01T01:01:13.067Z,12.90
2019-05-01T01:03:42.279Z,12.87
2019-05-01T01:06:11.342Z,12.82
2019-05-01T01:08:40.439Z,12.77
2019-05-01T01:11:09.584Z,12.71
2019-05-01T01:13:38.678Z,12.69
2019-05-01T01:16:07.744Z,12.66
2019-05-01T01:18:36.846Z,12.63
2019-05-01T01:21:05.935Z,12.61
2019-05-01T01:23:35.136Z,12.59
2019-05-01T01:26:04.207Z,12.57
2019-05-01T01:28:33.307Z,12.56
2019-05-01T01:31:02.421Z,12.54
2019-05-01T01:33:31.523Z,12.52
2019-05-01T01:36:00.600Z,12.50
2019-05-01T01:38:29.684Z,12.47
2019-05-01T01:40:59.157Z,12.44
2019-05-01T01:43:53.596Z,12.43
2019-05-01T01:46:24.551Z,12.43
2019-05-01T01:48:53.651Z,12.41
2019-05-01T01:51:22.826Z,12.42
2019-05-01T01:53:53.323Z,12.40
2019-05-01T01:56:22.857Z,12.39
2019-05-01T01:58:52.445Z,12.37
2019-05-01T02:01:39.130Z,12.35
2019-05-01T02:04:18.509Z,12.33
2019-05-01T02:06:48.790Z,12.30
2019-05-01T02:09:18.102Z,12.27
2019-05-01T02:11:48.465Z,12.23
2019-05-01T02:14:17.547Z,12.21
2019-05-01T02:16:46.629Z,12.20
2019-05-01T02:19:15.719Z,12.18
2019-05-01T02:21:44.807Z,12.16
2019-05-01T02:24:13.911Z,12.13
2019-05-01T02:26:46.611Z,12.11
2019-05-01T02:29:21.787Z,12.09
2019-05-01T02:31:53.564Z,12.04
2019-05-01T02:34:24.755Z,12.00
2019-05-01T02:36:58.316Z,11.96
2019-05-01T02:39:28.864Z,11.95
2019-05-01T02:42:01.534Z,11.92
2019-05-01T02:44:39.635Z,11.87
2019-05-01T02:47:11.661Z,11.85
2019-05-01T02:49:54.984Z,11.82
2019-05-01T02:52:28.198Z,11.79
2019-05-01T02:55:01.281Z,11.79
2019-05-01T02:57:31.861Z,11.80
2019-05-01T03:00:00.956Z,11.78
2019-05-01T03:02:31.341Z,11.77
2019-05-01T03:05:01.747Z,11.74
2019-05-01T03:07:33.833Z,11.72
2019-05-01T03:10:08.949Z,11.69
2019-05-01T03:12:38.787Z,11.67
2019-05-01T03:15:08.390Z,11.64
2019-05-01T03:18:00.770Z,11.59
2019-05-01T03:20:39.782Z,11.55
2019-05-01T03:23:44.226Z,11.53
2019-05-01T03:26:13.447Z,11.48
2019-05-01T03:28:42.614Z,11.44
2019-05-01T03:31:11.739Z,11.40
2019-05-01T03:33:42.184Z,11.38
2019-05-01T03:36:11.601Z,11.36
2019-05-01T03:38:40.681Z,11.35
2019-05-01T03:41:10.590Z,11.33
2019-05-01T03:43:40.538Z,11.31
2019-05-01T03:46:10.332Z,11.26
2019-05-01T03:48:39.613Z,11.23
2019-05-01T03:51:08.805Z,11.16
2019-05-01T03:53:38.078Z,11.14
2019-05-01T03:56:07.754Z,11.12
2019-05-01T03:58:37.143Z,11.07
2019-05-01T04:01:40.744Z,11.04
2019-05-01T04:04:13.535Z,11.01
2019-05-01T04:06:42.637Z,11.00
2019-05-01T04:09:11.812Z,10.99
2019-05-01T04:11:41.212Z,10.97
2019-05-01T04:14:10.886Z,10.94
2019-05-01T04:16:41.677Z,10.92
2019-05-01T04:19:11.247Z,10.91
2019-05-01T04:21:46.087Z,10.92
2019-05-01T04:24:15.666Z,10.91
2019-05-01T04:26:45.169Z,10.89
2019-05-01T04:29:33.246Z,10.88
2019-05-01T04:32:21.857Z,10.87
2019-05-01T04:34:57.172Z,10.83
2019-05-01T04:37:26.656Z,10.80
2019-05-01T04:39:56.050Z,10.77
2019-05-01T04:42:25.556Z,10.73
2019-05-01T04:44:55.040Z,10.68
2019-05-01T04:47:24.741Z,10.63
2019-05-01T04:49:54.411Z,10.60
2019-05-01T04:52:23.883Z,10.55
2019-05-01T04:54:52.964Z,10.54
2019-05-01T04:57:22.060Z,10.50
2019-05-01T04:59:51.138Z,10.44
2019-05-01T05:02:28.648Z,10.42
2019-05-01T05:04:58.250Z,10.39
2019-05-01T05:07:27.475Z,10.36
2019-05-01T05:09:56.550Z,10.32
2019-05-01T05:12:35.282Z,10.30
2019-05-01T05:15:26.880Z,10.28
2019-05-01T05:17:56.442Z,10.27
2019-05-01T05:20:25.919Z,10.26
2019-05-01T05:22:55.349Z,10.24
2019-05-01T05:25:24.421Z,10.25
2019-05-01T05:27:54.629Z,10.27
2019-05-01T05:30:26.084Z,10.27
2019-05-01T05:32:56.943Z,10.30
2019-05-01T05:35:28.864Z,10.34
2019-05-01T05:38:20.006Z,10.39
2019-05-01T05:40:49.490Z,10.42
2019-05-01T05:43:18.786Z,10.48
2019-05-01T05:45:48.566Z,10.49
2019-05-01T05:48:17.866Z,10.51
2019-05-01T05:51:05.657Z,10.56
2019-05-01T05:53:39.800Z,10.58
2019-05-01T05:56:14.275Z,10.58
2019-05-01T05:58:48.701Z,10.62
2019-05-01T06:01:30.781Z,10.68
2019-05-01T06:04:36.055Z,10.70
2019-05-01T06:07:28.101Z,10.74
2019-05-01T06:10:25.678Z,10.77
2019-05-01T06:13:17.974Z,10.84
2019-05-01T06:16:12.175Z,10.90
2019-05-01T06:19:01.514Z,10.93
2019-05-01T06:21:40.489Z,10.98
2019-05-01T06:24:15.139Z,11.04
2019-05-01T06:26:44.521Z,11.10
2019-05-01T06:29:13.716Z,11.15
2019-05-01T06:31:42.802Z,11.17
2019-05-01T06:34:11.899Z,11.15
2019-05-01T06:36:44.153Z,11.15
2019-05-01T06:39:13.307Z,11.14
2019-05-01T06:41:44.664Z,11.13
2019-05-01T06:44:39.147Z,11.12
2019-05-01T06:47:19.577Z,11.13
2019-05-01T06:50:18.392Z,11.14
2019-05-01T06:52:48.191Z,11.16
2019-05-01T06:55:17.369Z,11.14
2019-05-01T06:57:47.398Z,11.16
2019-05-01T07:00:18.115Z,11.20
2019-05-01T07:02:49.846Z,11.23
2019-05-01T07:05:22.144Z,11.29
2019-05-01T07:07:54.948Z,11.31
2019-05-01T07:10:31.463Z,11.35
2019-05-01T07:12:59.848Z,11.33
2019-05-01T07:15:28.648Z,11.33
2019-05-01T07:17:57.870Z,11.31
2019-05-01T07:20:47.412Z,11.30
2019-05-01T07:23:18.713Z,11.19
2019-05-01T07:25:48.107Z,11.13
2019-05-01T07:28:17.593Z,11.12
2019-05-01T07:31:04.878Z,11.12
2019-05-01T07:33:32.945Z,11.15
2019-05-01T07:36:02.325Z,11.20
2019-05-01T07:38:32.912Z,11.21
2019-05-01T07:41:03.358Z,11.20
2019-05-01T07:43:54.879Z,11.22
2019-05-01T07:46:27.769Z,11.27
2019-05-01T07:48:57.076Z,11.30
2019-05-01T07:51:26.355Z,11.33
2019-05-01T07:53:59.128Z,11.38
2019-05-01T07:56:28.125Z,11.41
2019-05-01T07:58:58.063Z,11.50
2019-05-01T08:02:04.466Z,11.53
2019-05-01T08:04:36.843Z,11.54
2019-05-01T08:07:04.655Z,11.60
2019-05-01T08:09:33.754Z,11.68
2019-05-01T08:12:02.831Z,11.74
2019-05-01T08:14:31.928Z,11.84
2019-05-01T08:17:01.028Z,11.89
2019-05-01T08:19:45.605Z,11.96
2019-05-01T08:22:17.575Z,12.04
2019-05-01T08:24:46.680Z,12.13
2019-05-01T08:27:25.438Z,12.24
2019-05-01T08:30:00.903Z,12.38
2019-05-01T08:32:44.410Z,12.51
2019-05-01T08:35:15.440Z,12.64
2019-05-01T08:37:44.512Z,12.72
2019-05-01T08:40:15.880Z,12.82
2019-05-01T08:42:44.502Z,12.94
2019-05-01T08:45:48.219Z,13.01
2019-05-01T08:48:39.709Z,13.09
2019-05-01T08:51:08.807Z,13.24
2019-05-01T08:53:37.886Z,13.37
2019-05-01T08:56:09.709Z,13.48
2019-05-01T08:58:37.779Z,13.56
2019-05-01T09:01:10.855Z,13.64
2019-05-01T09:03:37.761Z,13.76
2019-05-01T09:06:06.859Z,13.87
2019-05-01T09:08:35.928Z,13.98
2019-05-01T09:11:05.125Z,14.05
2019-05-01T09:13:34.200Z,14.10
2019-05-01T09:16:03.297Z,14.11
2019-05-01T09:18:32.368Z,14.15
2019-05-01T09:21:01.396Z,14.22
2019-05-01T09:23:30.485Z,14.27
2019-05-01T09:26:16.352Z,14.36
2019-05-01T09:28:50.850Z,14.45
2019-05-01T09:31:21.616Z,14.52
2019-05-01T09:33:50.693Z,14.63
2019-05-01T09:36:19.827Z,14.73
2019-05-01T09:38:50.068Z,14.83
2019-05-01T09:41:19.396Z,14.92
2019-05-01T09:43:48.480Z,15.00
2019-05-01T09:46:17.561Z,15.07
2019-05-01T09:48:47.434Z,15.16
2019-05-01T09:51:25.527Z,15.26
2019-05-01T09:54:09.737Z,15.36
2019-05-01T09:56:38.399Z,15.44
2019-05-01T09:59:07.603Z,15.49
2019-05-01T10:01:36.702Z,15.58
2019-05-01T10:04:05.780Z,15.65
2019-05-01T10:06:34.849Z,15.70
2019-05-01T10:09:05.988Z,15.79
2019-05-01T10:11:35.902Z,15.81
2019-05-01T10:14:05.927Z,15.88
2019-05-01T10:16:34.992Z,15.95
2019-05-01T10:19:04.393Z,16.00
2019-05-01T10:21:33.402Z,16.07
2019-05-01T10:24:02.514Z,16.14
2019-05-01T10:26:33.526Z,16.17
2019-05-01T10:29:25.930Z,16.22
2019-05-01T10:32:00.550Z,16.31
2019-05-01T10:34:42.985Z,16.45
2019-05-01T10:37:12.640Z,16.54
2019-05-01T10:39:41.738Z,16.63
2019-05-01T10:42:10.816Z,16.71
2019-05-01T10:44:39.911Z,16.75
2019-05-01T10:47:08.990Z,16.82
2019-05-01T10:49:38.093Z,16.90
2019-05-01T10:52:14.016Z,16.99
2019-05-01T10:54:38.017Z,17.14
2019-05-01T10:57:07.106Z,17.27
2019-05-01T10:59:36.151Z,17.36
2019-05-01T11:02:07.073Z,17.48
2019-05-01T11:04:36.091Z,17.58
2019-05-01T11:07:05.461Z,17.68
2019-05-01T11:09:34.564Z,17.73
2019-05-01T11:12:03.681Z,17.83
2019-05-01T11:14:32.772Z,17.94
2019-05-01T11:17:01.853Z,18.03
2019-05-01T11:19:30.871Z,18.16
2019-05-01T11:21:59.944Z,18.25
2019-05-01T11:24:29.041Z,18.33
2019-05-01T11:26:58.120Z,18.42
2019-05-01T11:29:27.271Z,18.52
2019-05-01T11:32:22.015Z,18.60
2019-05-01T11:35:16.241Z,18.75
2019-05-01T11:37:53.623Z,18.90
2019-05-01T11:40:30.743Z,19.11
2019-05-01T11:43:02.621Z,19.29
2019-05-01T11:45:30.630Z,19.52
2019-05-01T11:47:59.710Z,19.69
2019-05-01T11:50:28.824Z,19.80
2019-05-01T11:52:57.819Z,19.93
2019-05-01T11:55:26.986Z,20.14
2019-05-01T11:57:56.054Z,20.43
2019-05-01T12:00:25.243Z,20.66
2019-05-01T12:02:54.333Z,20.82
2019-05-01T12:05:23.431Z,20.93
2019-05-01T12:07:52.501Z,20.99
2019-05-01T12:10:21.589Z,21.09
2019-05-01T12:12:50.667Z,21.32
2019-05-01T12:15:19.759Z,21.47
2019-05-01T12:17:49.651Z,21.55
2019-05-01T12:20:19.632Z,21.65
2019-05-01T12:22:51.364Z,21.78
2019-05-01T12:25:19.649Z,21.93
2019-05-01T12:27:48.730Z,22.01
2019-05-01T12:30:20.500Z,22.00
2019-05-01T12:32:49.601Z,22.06
2019-05-01T12:35:18.690Z,22.16
2019-05-01T12:37:47.763Z,22.25
2019-05-01T12:40:19.004Z,22.38
2019-05-01T12:42:48.077Z,22.49
2019-05-01T12:45:17.866Z,22.59
2019-05-01T12:47:58.518Z,22.66
2019-05-01T12:50:27.614Z,22.72
2019-05-01T12:53:23.351Z,22.81
2019-05-01T12:56:11.442Z,22.81
2019-05-01T12:58:40.515Z,22.85
2019-05-01T13:01:09.602Z,22.94
2019-05-01T13:03:38.666Z,23.06
2019-05-01T13:06:07.763Z,23.07
2019-05-01T13:08:36.837Z,23.17
2019-05-01T13:11:06.034Z,23.23
2019-05-01T13:13:35.109Z,23.32
2019-05-01T13:16:04.215Z,23.45
2019-05-01T13:18:33.305Z,23.50
2019-05-01T13:21:02.403Z,23.44
2019-05-01T13:23:31.468Z,23.31
2019-05-01T13:26:37.697Z,23.29
2019-05-01T13:29:12.515Z,23.25
2019-05-01T13:32:00.639Z,23.33
2019-05-01T13:34:29.708Z,23.47
2019-05-01T13:37:03.175Z,23.59
2019-05-01T13:39:29.620Z,23.67
2019-05-01T13:41:58.721Z,23.72
2019-05-01T13:44:27.756Z,23.76
2019-05-01T13:46:56.872Z,23.78
2019-05-01T13:49:25.954Z,23.74
2019-05-01T13:51:55.065Z,23.76
2019-05-01T13:54:24.130Z,23.78
2019-05-01T13:56:53.230Z,23.73
2019-05-01T13:59:22.358Z,23.75
2019-05-01T14:01:51.386Z,23.84
2019-05-01T14:04:21.640Z,23.96
2019-05-01T14:06:50.917Z,24.00
2019-05-01T14:09:29.701Z,24.05
2019-05-01T14:11:58.815Z,24.14
2019-05-01T14:14:27.885Z,24.22
2019-05-01T14:16:56.984Z,24.34
2019-05-01T14:19:26.055Z,24.39
2019-05-01T14:22:17.486Z,24.49
2019-05-01T14:25:34.499Z,24.52
2019-05-01T14:28:03.565Z,24.50
2019-05-01T14:30:32.666Z,24.42
2019-05-01T14:33:01.765Z,24.39
2019-05-01T14:35:30.872Z,24.30
2019-05-01T14:37:59.950Z,24.16
2019-05-01T14:40:29.027Z,24.00
2019-05-01T14:42:58.123Z,23.74
2019-05-01T14:45:27.220Z,23.57
2019-05-01T14:47:56.322Z,23.45
2019-05-01T14:50:25.406Z,23.38
2019-05-01T14:52:54.431Z,23.38
2019-05-01T14:55:23.511Z,23.42
2019-05-01T14:57:52.607Z,23.48
2019-05-01T15:00:21.984Z,23.46
2019-05-01T15:02:51.084Z,23.46
2019-05-01T15:05:20.158Z,23.41
2019-05-01T15:07:49.284Z,23.39
2019-05-01T15:10:18.362Z,23.33
2019-05-01T15:12:49.029Z,23.32
2019-05-01T15:15:43.172Z,23.27
2019-05-01T15:18:18.046Z,23.11
2019-05-01T15:20:47.125Z,22.98
2019-05-01T15:23:16.214Z,22.84
2019-05-01T15:25:45.295Z,22.76
2019-05-01T15:28:14.392Z,22.66
2019-05-01T15:30:43.467Z,22.59
2019-05-01T15:33:12.599Z,22.52
2019-05-01T15:35:41.660Z,22.38
2019-05-01T15:38:10.764Z,22.25
2019-05-01T15:40:46.650Z,22.16
2019-05-01T15:43:30.511Z,22.09
2019-05-01T15:45:59.581Z,22.00
2019-05-01T15:48:28.732Z,21.87
2019-05-01T15:50:57.820Z,21.72
2019-05-01T15:53:26.841Z,21.54
2019-05-01T15:55:55.919Z,21.37
2019-05-01T15:58:25.001Z,21.17
2019-05-01T16:00:54.064Z,21.03
2019-05-01T16:03:23.157Z,20.90
2019-05-01T16:05:52.224Z,20.70
2019-05-01T16:08:21.312Z,20.55
2019-05-01T16:11:15.840Z,20.46
2019-05-01T16:13:44.934Z,20.31
2019-05-01T16:16:13.994Z,20.13
2019-05-01T16:18:43.099Z,20.08
2019-05-01T16:21:12.154Z,19.99
2019-05-01T16:23:42.755Z,19.94
2019-05-01T16:26:11.796Z,19.88
2019-05-01T16:28:40.887Z,19.80
2019-05-01T16:31:10.055Z,19.75
2019-05-01T16:33:39.092Z,19.66
2019-05-01T16:36:08.292Z,19.57
2019-05-01T16:39:02.952Z,19.50
2019-05-01T16:41:32.118Z,19.42
2019-05-01T16:44:01.210Z,19.30
2019-05-01T16:46:30.289Z,19.23
2019-05-01T16:48:59.372Z,19.15
2019-05-01T16:51:29.317Z,19.09
2019-05-01T16:53:58.414Z,19.01
2019-05-01T16:56:27.507Z,18.96
2019-05-01T16:58:56.530Z,18.86
2019-05-01T17:01:44.859Z,18.78
2019-05-01T17:04:30.941Z,18.71
2019-05-01T17:07:17.872Z,18.59
2019-05-01T17:10:00.198Z,18.55
2019-05-01T17:12:33.115Z,18.48
2019-05-01T17:15:02.216Z,18.37
2019-05-01T17:17:31.669Z,18.31
2019-05-01T17:20:00.766Z,18.25
2019-05-01T17:22:29.861Z,18.14
2019-05-01T17:24:58.961Z,18.08
2019-05-01T17:27:28.047Z,18.06
2019-05-01T17:29:57.076Z,17.98
2019-05-01T17:32:26.175Z,17.92
2019-05-01T17:34:55.282Z,17.88
2019-05-01T17:37:24.788Z,17.81
2019-05-01T17:39:53.884Z,17.78
2019-05-01T17:42:22.964Z,17.71
2019-05-01T17:44:55.911Z,17.66
2019-05-01T17:47:23.736Z,17.61
2019-05-01T17:49:53.724Z,17.56
2019-05-01T17:52:22.796Z,17.53
2019-05-01T17:54:51.822Z,17.50
2019-05-01T17:57:20.908Z,17.46
2019-05-01T17:59:52.146Z,17.37
2019-05-01T18:02:40.983Z,17.32
2019-05-01T18:05:17.276Z,17.24
2019-05-01T18:07:46.357Z,17.19
2019-05-01T18:10:15.441Z,17.16
2019-05-01T18:12:44.504Z,17.13
2019-05-01T18:15:13.594Z,17.07
2019-05-01T18:17:42.665Z,17.05
2019-05-01T18:20:11.863Z,17.02
2019-05-01T18:23:08.358Z,16.97
2019-05-01T18:25:54.433Z,16.94
2019-05-01T18:28:36.644Z,16.90
2019-05-01T18:31:08.380Z,16.86
2019-05-01T18:33:37.449Z,16.82
2019-05-01T18:36:07.323Z,16.77
2019-05-01T18:38:47.558Z,16.73
2019-05-01T18:41:35.716Z,16.69
2019-05-01T18:44:05.414Z,16.64
2019-05-01T18:46:35.540Z,16.60
2019-05-01T18:49:04.630Z,16.55
2019-05-01T18:51:36.115Z,16.52
2019-05-01T18:54:04.536Z,16.47
2019-05-01T18:56:38.147Z,16.41
2019-05-01T18:59:04.522Z,16.36
2019-05-01T19:01:33.607Z,16.32
2019-05-01T19:04:02.671Z,16.27
2019-05-01T19:06:40.998Z,16.22
2019-05-01T19:09:14.297Z,16.17
2019-05-01T19:11:33.470Z,16.12
2019-05-01T19:14:02.641Z,16.05
2019-05-01T19:16:31.726Z,16.01
2019-05-01T19:19:03.722Z,15.96
2019-05-01T19:21:33.477Z,15.89
2019-05-01T19:24:05.651Z,15.83
2019-05-01T19:26:33.356Z,15.76
2019-05-01T19:29:02.421Z,15.67
2019-05-01T19:31:31.561Z,15.63
2019-05-01T19:34:00.598Z,15.57
2019-05-01T19:36:29.713Z,15.50
2019-05-01T19:38:58.755Z,15.44
2019-05-01T19:41:27.858Z,15.36
2019-05-01T19:43:56.928Z,15.33
2019-05-01T19:46:26.042Z,15.30
2019-05-01T19:48:55.096Z,15.25
2019-05-01T19:51:25.976Z,15.21
2019-05-01T19:53:55.159Z,15.15
2019-05-01T19:56:24.283Z,15.11
2019-05-01T19:58:53.345Z,15.06
2019-05-01T20:01:22.544Z,15.02
2019-05-01T20:03:51.588Z,14.94
2019-05-01T20:06:20.675Z,14.90
2019-05-01T20:08:49.748Z,14.85
2019-05-01T20:11:18.843Z,14.80
2019-05-01T20:13:47.847Z,14.74
2019-05-01T20:16:17.633Z,14.69
2019-05-01T20:18:46.705Z,14.63
2019-05-01T20:21:15.790Z,14.58
2019-05-01T20:23:44.867Z,14.52
2019-05-01T20:26:13.967Z,14.47
2019-05-01T20:28:43.032Z,14.44
2019-05-01T20:31:12.139Z,14.40
2019-05-01T20:33:44.538Z,14.37
2019-05-01T20:36:12.012Z,14.32
2019-05-01T20:38:41.079Z,14.29
2019-05-01T20:41:15.697Z,14.24
2019-05-01T20:43:43.314Z,14.20
2019-05-01T20:46:11.712Z,14.15
2019-05-01T20:48:40.768Z,14.11
2019-05-01T20:51:09.834Z,14.07
2019-05-01T20:53:38.937Z,14.03
2019-05-01T20:56:18.664Z,13.98
2019-05-01T20:58:47.732Z,13.94
2019-05-01T21:01:16.887Z,13.89
2019-05-01T21:03:56.212Z,13.84
2019-05-01T21:06:28.457Z,13.79
2019-05-01T21:09:01.911Z,13.72
2019-05-01T21:11:34.775Z,13.68
2019-05-01T21:14:16.977Z,13.62
2019-05-01T21:16:37.892Z,13.59
2019-05-01T21:19:05.399Z,13.55
2019-05-01T21:21:34.491Z,13.50
2019-05-01T21:24:03.719Z,13.43
2019-05-01T21:26:33.530Z,13.36
2019-05-01T21:29:04.105Z,13.29
2019-05-01T21:31:34.114Z,13.21
2019-05-01T21:34:04.185Z,13.15
2019-05-01T21:36:33.365Z,13.08
2019-05-01T21:39:02.544Z,13.03
2019-05-01T21:41:32.887Z,12.98
2019-05-01T21:44:03.117Z,12.94
2019-05-01T21:46:34.045Z,12.88
2019-05-01T21:49:03.301Z,12.82
2019-05-01T21:51:32.820Z,12.79
2019-05-01T21:54:03.266Z,12.75
2019-05-01T21:56:32.510Z,12.69
2019-05-01T21:59:04.739Z,12.67
2019-05-01T22:01:34.910Z,12.63
2019-05-01T22:04:03.366Z,12.59
2019-05-01T22:06:32.435Z,12.54
2019-05-01T22:09:01.515Z,12.50
2019-05-01T22:11:33.033Z,12.47
2019-05-01T22:14:02.822Z,12.44
2019-05-01T22:16:31.888Z,12.41
2019-05-01T22:19:25.927Z,12.37
2019-05-01T22:22:13.986Z,12.34
2019-05-01T22:24:57.203Z,12.30
2019-05-01T22:27:33.127Z,12.26
2019-05-01T22:30:12.834Z,12.21
2019-05-01T22:32:46.088Z,12.18
2019-05-01T22:35:26.189Z,12.12
2019-05-01T22:37:55.292Z,12.05
2019-05-01T22:40:43.364Z,11.97
2019-05-01T22:43:12.456Z,11.93
2019-05-01T22:45:41.532Z,11.89
2019-05-01T22:48:10.619Z,11.86
2019-05-01T22:50:39.714Z,11.83
2019-05-01T22:53:13.071Z,11.78
2019-05-01T22:55:39.635Z,11.73
2019-05-01T22:58:08.704Z,11.70
2019-05-01T23:00:43.520Z,11.65
2019-05-01T23:03:19.480Z,11.59
2019-05-01T23:05:48.554Z,11.53
2019-05-01T23:08:17.645Z,11.48
2019-05-01T23:10:48.479Z,11.42
2019-05-01T23:13:17.697Z,11.35
2019-05-01T23:15:46.795Z,11.32
2019-05-01T23:18:17.352Z,11.29
2019-05-01T23:20:46.448Z,11.21
2019-05-01T23:23:15.530Z,11.14
2019-05-01T23:25:44.612Z,11.10
2019-05-01T23:28:13.685Z,11.05
2019-05-01T23:30:42.787Z,11.02
2019-05-01T23:33:11.875Z,11.03
2019-05-01T23:35:40.976Z,11.03
2019-05-01T23:38:10.048Z,11.01
2019-05-01T23:40:39.185Z,11.02
2019-05-01T23:43:08.217Z,11.00
2019-05-01T23:45:37.309Z,11.00
2019-05-01T23:48:06.374Z,11.00
2019-05-01T23:50:35.478Z,11.00
2019-05-01T23:53:04.532Z,10.97
2019-05-01T23:55:33.542Z,10.94
2019-05-01T23:58:02.621Z,10.90
